Time;durP1;ratioP1;P1;durP2;ratioP2;P2;SDS_P1;SDS_P2;PMS_P1;PMS_P2;Temp;Humidity;BMP_temperature;BMP_pressure;BME280_temperature;BME280_humidity;BME280_pressure;Samples;Min_cycle;Max_cycle;Signal;HPM_P1;HPM_P2
2023/01/14 00:01:29;;;;;;;10.50;1.15;;;8.20;99.90;;;6.70;89.41;100162.88;5011993;28;20025;-83
2023/01/14 00:03:55;;;;;;;11.50;1.55;;;8.20;99.90;;;6.67;89.09;100163.00;5012613;28;20056;-82
2023/01/14 00:06:32;;;;;;;10.70;1.60;;;8.20;99.90;;;6.68;89.68;100167.31;5012263;28;20029;-82
2023/01/14 00:09:11;;;;;;;7.80;1.17;;;8.20;99.90;;;6.68;90.05;100175.19;4994224;28;20029;-81
2023/01/14 00:11:51;;;;;;;10.57;1.20;;;8.10;99.90;;;6.63;89.97;100164.03;5012223;28;20021;-82
2023/01/14 00:14:28;;;;;;;5.70;0.90;;;8.10;99.90;;;6.59;88.96;100178.16;5012512;28;20065;-82
2023/01/14 00:16:55;;;;;;;6.65;0.93;;;8.10;99.90;;;6.55;89.61;100173.94;5010587;28;20257;-82
2023/01/14 00:19:23;;;;;;;7.95;1.20;;;8.10;99.90;;;6.54;89.68;100177.47;4994706;28;20097;-82
2023/01/14 00:21:55;;;;;;;14.88;1.92;;;8.10;99.90;;;6.51;89.80;100195.91;5012422;28;20057;-83
2023/01/14 00:24:22;;;;;;;12.32;1.00;;;8.10;99.90;;;6.51;90.26;100193.28;5014784;28;20026;-83
2023/01/14 00:26:54;;;;;;;12.18;1.27;;;8.10;99.90;;;6.55;90.79;100200.09;5028750;28;20449;-82
2023/01/14 00:29:26;;;;;;;7.05;1.42;;;8.10;99.90;;;6.54;91.09;100211.47;5013505;28;20026;-82
2023/01/14 00:31:55;;;;;;;8.60;1.02;;;8.00;99.90;;;6.58;91.01;100218.28;5012141;28;20053;-83
2023/01/14 00:34:21;;;;;;;5.20;0.98;;;8.00;99.90;;;6.50;91.50;100215.09;4995256;28;20104;-82
2023/01/14 00:36:52;;;;;;;6.80;0.77;;;8.00;99.90;;;6.46;91.46;100211.78;5012788;28;20057;-82
2023/01/14 00:39:18;;;;;;;5.72;1.00;;;8.00;99.90;;;6.48;90.96;100217.81;5014639;28;20026;-81
2023/01/14 00:41:44;;;;;;;11.15;1.40;;;8.00;99.90;;;6.50;91.56;100225.56;5012225;28;20033;-81
2023/01/14 00:44:10;;;;;;;6.43;0.90;;;8.00;99.90;;;6.45;91.46;100222.28;5010768;28;20059;-83
2023/01/14 00:46:43;;;;;;;10.02;1.10;;;8.00;99.90;;;6.46;91.49;100234.47;5009928;28;20037;-80
2023/01/14 00:49:25;;;;;;;8.18;1.15;;;8.00;99.90;;;6.44;90.99;100241.53;4998579;28;20056;-82
2023/01/14 00:51:52;;;;;;;8.50;1.30;;;8.00;99.90;;;6.45;91.43;100237.97;4997677;28;20029;-82
2023/01/14 00:54:18;;;;;;;5.72;1.10;;;7.90;99.90;;;6.45;91.14;100237.97;5029956;28;20467;-81
2023/01/14 00:56:46;;;;;;;6.88;0.98;;;7.90;99.90;;;6.47;91.21;100244.00;4992731;28;20037;-81
2023/01/14 00:59:23;;;;;;;5.97;0.90;;;7.90;99.90;;;6.41;91.00;100245.06;5013016;28;20025;-82
2023/01/14 01:01:55;;;;;;;7.47;1.17;;;7.90;99.90;;;6.42;91.25;100256.41;5011946;28;20109;-82
2023/01/14 01:04:21;;;;;;;6.68;1.10;;;7.90;99.90;;;6.44;91.13;100259.81;4995713;28;20034;-82
2023/01/14 01:06:47;;;;;;;14.02;1.27;;;7.90;99.90;;;6.39;91.72;100265.19;5010309;28;20417;-82
2023/01/14 01:09:12;;;;;;;12.75;1.25;;;7.90;99.90;;;6.42;91.76;100272.09;5011033;28;20056;-83
2023/01/14 01:11:38;;;;;;;7.28;1.10;;;7.90;99.90;;;6.42;92.19;100270.34;5041703;23;20106;-82
2023/01/14 01:14:04;;;;;;;10.13;1.15;;;7.90;99.90;;;6.41;91.83;100267.75;5031818;28;20033;-83
2023/01/14 01:16:37;;;;;;;6.18;1.13;;;7.90;99.90;;;6.36;91.93;100278.41;5031026;28;20033;-82
2023/01/14 01:19:03;;;;;;;8.18;1.25;;;7.80;99.90;;;6.22;92.11;100281.53;5030385;28;20555;-83
2023/01/14 01:21:29;;;;;;;5.78;1.05;;;7.70;99.90;;;6.11;92.43;100281.03;5021704;28;20063;-82
2023/01/14 01:23:55;;;;;;;8.35;1.35;;;7.60;99.90;;;6.03;92.83;100277.84;4995912;28;20730;-82
2023/01/14 01:26:26;;;;;;;13.02;1.30;;;7.60;99.90;;;6.04;93.19;100285.63;5029019;28;20261;-82
2023/01/14 01:28:57;;;;;;;11.88;1.38;;;7.60;99.90;;;6.05;93.00;100289.09;5010314;28;20021;-82
2023/01/14 01:31:25;;;;;;;11.60;1.73;;;7.60;99.90;;;6.04;93.54;100290.00;5011754;28;20041;-83
2023/01/14 01:33:58;;;;;;;7.25;0.95;;;7.50;99.90;;;5.99;94.43;100297.16;4992808;28;20165;-81
2023/01/14 01:36:27;;;;;;;11.10;1.40;;;7.50;99.90;;;5.97;95.08;100298.97;5028519;28;20045;-82
2023/01/14 01:39:02;;;;;;;8.18;1.25;;;7.50;99.90;;;5.91;95.98;100289.53;5012486;28;20081;-82
2023/01/14 01:41:31;;;;;;;10.50;1.30;;;7.40;99.90;;;5.85;97.17;100303.69;5009106;28;20049;-82
2023/01/14 01:44:12;;;;;;;9.98;1.17;;;7.40;99.90;;;5.77;97.90;100313.53;4994685;28;20033;-82
2023/01/14 01:46:42;;;;;;;14.40;1.95;;;7.30;99.90;;;5.77;98.45;100313.53;5031299;28;20520;-82
2023/01/14 01:49:32;;;;;;;11.73;1.38;;;7.30;99.90;;;5.74;98.77;100311.88;5013524;28;20034;-81
2023/01/14 01:52:17;;;;;;;9.90;1.77;;;7.30;99.90;;;5.67;99.38;100317.34;5006158;23;20084;-82
2023/01/14 01:54:52;;;;;;;7.05;1.20;;;7.20;99.90;;;5.64;99.97;100313.06;5012347;28;20029;-83
2023/01/14 01:57:26;;;;;;;14.43;2.38;;;7.20;99.90;;;5.59;100.00;100327.19;5012754;28;20421;-81
2023/01/14 01:59:59;;;;;;;19.00;1.98;;;7.10;99.90;;;5.55;100.00;100326.44;4994116;28;20025;-82
2023/01/14 02:02:29;;;;;;;13.13;1.08;;;7.10;99.90;;;5.51;100.00;100324.84;4982860;28;20080;-82
2023/01/14 02:04:55;;;;;;;8.07;1.60;;;7.10;99.90;;;5.47;100.00;100325.81;4975007;28;20038;-81
2023/01/14 02:07:24;;;;;;;13.43;1.63;;;7.00;99.90;;;5.45;100.00;100331.09;4990113;28;20035;-82
2023/01/14 02:09:59;;;;;;;13.82;1.55;;;7.00;99.90;;;5.40;100.00;100330.41;4990699;28;20021;-83
2023/01/14 02:13:01;;;;;;;10.27;1.90;;;6.90;99.90;;;5.37;100.00;100334.84;5022164;23;20111;-83
2023/01/14 02:15:48;;;;;;;13.05;1.52;;;6.90;99.90;;;5.34;100.00;100351.47;5046308;28;20037;-82
2023/01/14 02:19:15;;;;;;;12.30;1.48;;;6.90;99.90;;;5.27;100.00;100363.84;5028789;28;20060;-83
2023/01/14 02:22:32;;;;;;;14.43;1.35;;;6.80;99.90;;;5.24;100.00;100361.31;5046910;28;20026;-83
2023/01/14 02:25:55;;;;;;;12.43;1.23;;;6.80;99.90;;;5.19;100.00;100362.38;5032836;28;20041;-81
2023/01/14 02:28:58;;;;;;;10.75;1.38;;;6.80;99.90;;;5.12;100.00;100370.41;5001255;28;20033;-83
2023/01/14 02:31:56;;;;;;;17.42;1.75;;;6.70;99.90;;;5.07;100.00;100372.25;5045599;28;20033;-82
2023/01/14 02:35:03;;;;;;;13.50;1.77;;;6.70;99.90;;;5.06;100.00;100380.16;5030511;28;20509;-82
2023/01/14 02:37:51;;;;;;;11.77;1.43;;;6.60;99.90;;;5.05;100.00;100383.66;5047820;28;20061;-82
2023/01/14 02:40:53;;;;;;;9.90;1.50;;;6.60;99.90;;;5.04;100.00;100390.63;5026566;28;20045;-83
2023/01/14 02:46:51;;;;;;;14.13;1.50;;;6.60;99.90;;;4.97;100.00;100389.13;5033478;28;20044;-82
2023/01/14 02:49:26;;;;;;;7.32;1.30;;;6.50;99.90;;;4.97;100.00;100399.56;5029614;28;20127;-82
2023/01/14 02:51:55;;;;;;;10.40;0.97;;;6.50;99.90;;;4.97;100.00;100406.50;5012782;28;20043;-82
2023/01/14 02:54:21;;;;;;;13.25;1.52;;;6.50;99.90;;;5.00;100.00;100420.31;5026938;28;20268;-83
2023/01/14 02:57:49;;;;;;;11.27;1.30;;;6.50;99.90;;;4.99;100.00;100409.91;5011878;28;20032;-83
2023/01/14 03:00:37;;;;;;;14.45;1.70;;;6.50;99.90;;;4.98;100.00;100409.06;5006146;28;20036;-81
2023/01/14 03:03:18;;;;;;;10.98;1.25;;;6.50;99.90;;;4.99;100.00;100408.19;5010850;28;20037;-83
2023/01/14 03:06:13;;;;;;;10.45;1.35;;;6.50;99.90;;;4.99;100.00;100417.75;5043546;28;20080;-81
2023/01/14 03:08:57;;;;;;;8.48;1.08;;;6.50;99.90;;;4.95;100.00;100422.22;5026178;28;20053;-82
2023/01/14 03:11:29;;;;;;;11.82;1.10;;;6.50;99.90;;;4.93;100.00;100414.44;5032452;23;20064;-83
2023/01/14 03:14:16;;;;;;;7.88;1.52;;;6.50;99.90;;;4.91;100.00;100425.81;5010723;28;20034;-82
2023/01/14 03:16:55;;;;;;;13.13;1.30;;;6.50;99.90;;;4.90;100.00;100424.09;5026846;28;20053;-83
2023/01/14 03:20:05;;;;;;;11.48;1.15;;;6.40;99.90;;;4.86;100.00;100423.34;5026939;28;20446;-82
2023/01/14 03:22:32;;;;;;;14.30;1.52;;;6.40;99.90;;;4.88;100.00;100428.50;4996738;28;20031;-83
2023/01/14 03:25:00;;;;;;;14.32;1.70;;;6.40;99.90;;;4.87;100.00;100435.47;5007815;28;20034;-83
2023/01/14 03:27:35;;;;;;;16.35;1.30;;;6.40;99.90;;;4.87;100.00;100437.22;5005199;28;20033;-84
2023/01/14 03:30:28;;;;;;;10.15;1.23;;;6.40;99.90;;;4.85;100.00;100442.47;5005596;28;20045;-82
2023/01/14 03:33:10;;;;;;;9.52;1.15;;;6.40;99.90;;;4.85;100.00;100436.41;5032421;23;20046;-83
2023/01/14 03:35:40;;;;;;;16.73;1.70;;;6.40;99.90;;;4.82;100.00;100437.34;5012508;28;20126;-83
2023/01/14 03:38:29;;;;;;;13.88;1.45;;;6.40;99.90;;;4.82;100.00;100446.94;5011935;28;20409;-83
2023/01/14 03:40:59;;;;;;;8.40;1.20;;;6.40;99.90;;;4.82;100.00;100441.72;5010002;28;20028;-82
2023/01/14 03:43:51;;;;;;;11.23;1.55;;;6.40;99.90;;;4.81;100.00;100445.22;5021775;23;20093;-82
2023/01/14 03:46:17;;;;;;;13.60;1.83;;;6.40;99.90;;;4.80;100.00;100448.75;4986018;28;20072;-82
2023/01/14 03:48:43;;;;;;;12.32;1.50;;;6.40;99.90;;;4.83;100.00;100456.47;4988787;28;20025;-83
2023/01/14 03:51:34;;;;;;;13.65;1.90;;;6.40;99.90;;;4.83;100.00;100466.91;5002009;28;20030;-82
2023/01/14 03:54:24;;;;;;;11.77;1.33;;;6.40;99.90;;;4.84;100.00;100464.25;4994316;28;20489;-84
2023/01/14 03:57:23;;;;;;;6.43;1.10;;;6.40;99.90;;;4.90;100.00;100471.94;4993033;28;20048;-84
2023/01/14 04:00:07;;;;;;;15.52;1.45;;;6.40;99.90;;;5.01;100.00;100476.84;4989316;28;20045;-83
2023/01/14 04:02:34;;;;;;;6.68;1.45;;;6.50;99.90;;;5.10;100.00;100473.97;5012510;28;20029;-83
2023/01/14 04:05:04;;;;;;;14.27;1.90;;;6.60;99.90;;;5.11;100.00;100483.50;5007732;28;20117;-83
2023/01/14 04:07:32;;;;;;;18.35;2.45;;;6.60;99.90;;;5.17;100.00;100484.25;5023021;28;20552;-85
2023/01/14 04:09:58;;;;;;;19.60;2.45;;;6.70;99.90;;;5.14;100.00;100493.03;5011166;28;20083;-82
2023/01/14 04:12:24;;;;;;;15.93;2.40;;;6.70;99.90;;;5.11;100.00;100503.53;5008602;28;20108;-82
2023/01/14 04:17:42;;;;;;;17.75;2.15;;;6.60;99.90;;;5.02;100.00;100499.41;5009684;28;20553;-82
2023/01/14 04:20:09;;;;;;;8.48;1.35;;;6.60;99.90;;;5.00;100.00;100495.16;5009271;28;20045;-83
2023/01/14 04:22:35;;;;;;;9.70;1.45;;;;;;;5.01;100.00;100502.06;4994581;28;20067;-84
2023/01/14 04:25:01;;;;;;;11.00;1.80;;;6.60;99.90;;;5.02;100.00;100502.03;5008641;28;20056;-85
2023/01/14 04:27:26;;;;;;;14.30;1.83;;;6.60;99.90;;;5.09;100.00;100511.41;4992600;28;20022;-82
2023/01/14 04:29:52;;;;;;;14.57;2.08;;;6.70;99.90;;;5.19;100.00;100525.06;4991654;28;20038;-85
2023/01/14 04:32:25;;;;;;;14.10;2.13;;;6.70;99.90;;;5.29;100.00;100523.91;4990265;28;20104;-81
2023/01/14 04:34:51;;;;;;;17.80;2.08;;;;;;;5.38;100.00;100537.59;5008097;28;20093;-84
2023/01/14 04:37:17;;;;;;;13.93;1.88;;;6.80;99.90;;;5.44;100.00;100538.31;5009571;28;20789;-82
2023/01/14 04:39:43;;;;;;;15.48;1.75;;;6.90;99.90;;;5.47;100.00;100538.19;5007539;28;20030;-84
2023/01/14 04:42:27;;;;;;;11.57;1.55;;;6.90;99.90;;;5.50;100.00;100535.50;4990589;28;20044;-83
2023/01/14 04:45:00;;;;;;;14.85;1.90;;;7.00;99.90;;;5.60;100.00;100532.63;4992236;28;20041;-84
2023/01/14 04:47:28;;;;;;;18.23;2.58;;;7.10;99.90;;;5.58;100.00;100534.44;5000278;28;20512;-82
2023/01/14 04:49:54;;;;;;;14.02;1.60;;;7.10;99.90;;;5.63;100.00;100540.38;4996210;28;20037;-85
2023/01/14 04:52:27;;;;;;;12.80;2.78;;;7.10;99.90;;;5.68;100.00;100551.53;4990995;28;20028;-84
2023/01/14 04:54:53;;;;;;;17.48;2.25;;;7.20;99.90;;;5.66;100.00;100541.16;4991199;28;20118;-82
2023/01/14 04:57:19;;;;;;;11.07;1.77;;;7.20;99.90;;;5.68;100.00;100543.69;5009103;28;20033;-81
2023/01/14 04:59:45;;;;;;;19.58;2.03;;;7.20;99.90;;;5.71;100.00;100544.47;5006710;28;20030;-84
2023/01/14 05:02:16;;;;;;;11.35;1.80;;;7.20;99.90;;;5.72;100.00;100551.41;4990481;28;20033;-82
2023/01/14 05:04:41;;;;;;;12.57;1.65;;;7.20;99.90;;;5.70;100.00;100557.56;5006464;28;20033;-84
2023/01/14 05:07:07;;;;;;;12.70;1.88;;;7.20;99.90;;;5.70;100.00;100568.00;4991584;28;20113;-81
2023/01/14 05:09:33;;;;;;;15.32;2.33;;;7.20;99.90;;;5.70;100.00;100562.78;5009323;28;20079;-84
2023/01/14 05:11:59;;;;;;;12.25;1.83;;;7.20;99.90;;;5.72;100.00;100568.84;4990274;28;20403;-84
2023/01/14 05:14:25;;;;;;;14.35;1.63;;;7.20;99.90;;;5.71;100.00;100561.91;5004505;28;20030;-84
2023/01/14 05:16:56;;;;;;;16.88;1.90;;;7.20;99.90;;;5.67;100.00;100568.13;4987757;28;20026;-84
2023/01/14 05:19:22;;;;;;;13.85;2.22;;;7.20;99.90;;;5.66;100.00;100559.44;4992477;28;20442;-84
2023/01/14 05:21:47;;;;;;;16.33;1.95;;;7.10;99.90;;;5.66;100.00;100577.72;4988970;28;20029;-80
2023/01/14 05:24:13;;;;;;;11.80;2.08;;;7.10;99.90;;;5.64;100.00;100578.66;4991678;28;20116;-84
2023/01/14 05:26:39;;;;;;;13.73;1.67;;;7.20;99.90;;;5.69;100.00;100582.00;5004921;28;20038;-83
2023/01/14 05:29:05;;;;;;;15.48;1.73;;;7.20;99.90;;;5.71;100.00;100581.03;5007585;28;20025;-84
2023/01/14 05:31:31;;;;;;;9.82;1.65;;;7.20;99.90;;;5.70;100.00;100573.25;5010054;28;21330;-84
2023/01/14 05:34:05;;;;;;;12.85;1.77;;;7.20;99.90;;;5.70;100.00;100576.72;4991682;28;20037;-82
2023/01/14 05:36:31;;;;;;;15.30;1.55;;;7.20;99.90;;;5.72;100.00;100584.50;5005617;28;20108;-85
2023/01/14 05:38:57;;;;;;;18.50;2.05;;;7.20;99.90;;;5.73;100.00;100589.69;5008428;28;20120;-83
2023/01/14 05:41:26;;;;;;;17.77;2.28;;;7.20;99.90;;;5.76;100.00;100594.81;5004464;28;20093;-85
2023/01/14 05:46:36;;;;;;;11.43;1.52;;;7.30;99.90;;;5.81;100.00;100591.22;5009320;28;20068;-82
2023/01/14 05:49:05;;;;;;;12.55;1.95;;;7.30;99.90;;;5.80;100.00;100585.16;5006922;28;20033;-85
2023/01/14 05:51:36;;;;;;;13.95;2.25;;;7.30;99.90;;;5.81;100.00;100592.09;5005032;28;20026;-82
2023/01/14 05:54:02;;;;;;;14.02;1.65;;;7.30;99.90;;;5.86;100.00;100599.81;5007921;28;20048;-85
2023/01/14 05:56:28;;;;;;;15.88;2.08;;;7.40;99.90;;;5.92;100.00;100604.84;5007037;28;20630;-82
2023/01/14 05:58:54;;;;;;;12.30;1.98;;;7.30;99.90;;;5.91;100.00;100598.75;5006602;28;20049;-84
2023/01/14 06:06:50;;;;;;;12.40;2.03;;;7.40;99.90;;;5.93;100.00;100612.63;5007760;28;20092;-82
2023/01/14 06:09:18;;;;;;;13.88;1.85;;;7.40;99.90;;;5.94;100.00;100603.94;5008014;28;20101;-82
2023/01/14 06:12:02;;;;;;;13.50;2.13;;;7.40;99.90;;;5.97;100.00;100615.19;4990285;28;20034;-84
2023/01/14 06:14:32;;;;;;;12.88;2.30;;;7.40;99.90;;;6.00;100.00;100617.72;4992565;28;20022;-83
2023/01/14 06:16:59;;;;;;;12.57;1.60;;;7.40;99.90;;;6.02;100.00;100621.13;5006740;28;20540;-82
2023/01/14 06:19:25;;;;;;;17.02;1.80;;;7.40;99.90;;;6.02;100.00;100635.06;4991465;28;20394;-83
2023/01/14 06:21:50;;;;;;;9.93;1.65;;;7.50;99.90;;;6.02;99.92;100624.59;4987878;28;20034;-83
2023/01/14 06:24:17;;;;;;;10.52;1.67;;;7.50;99.90;;;6.04;99.72;100622.81;5007537;28;20033;-82
2023/01/14 06:26:47;;;;;;;10.40;1.75;;;7.50;99.90;;;6.06;99.52;100635.84;4992076;28;20040;-83
2023/01/14 06:29:13;;;;;;;15.15;2.00;;;7.50;99.90;;;6.09;98.96;100628.75;4991829;28;20026;-83
2023/01/14 06:31:40;;;;;;;8.60;1.60;;;7.60;99.90;;;6.10;98.92;100627.00;5007892;28;20031;-83
2023/01/14 06:34:06;;;;;;;12.88;1.88;;;7.60;99.90;;;6.09;99.29;100631.38;5005097;28;20029;-81
2023/01/14 06:36:34;;;;;;;12.38;1.63;;;7.60;99.90;;;6.11;99.00;100636.53;5006155;28;20104;-84
2023/01/14 06:39:05;;;;;;;10.68;1.67;;;7.60;99.90;;;6.16;98.91;100632.06;5008169;28;20041;-84
2023/01/14 06:41:31;;;;;;;13.63;1.48;;;7.60;99.90;;;6.14;99.07;100637.31;4991004;28;20032;-83
2023/01/14 06:43:57;;;;;;;12.48;1.50;;;7.60;99.90;;;6.13;98.51;100635.63;5004175;28;20037;-83
2023/01/14 06:46:24;;;;;;;8.90;1.27;;;7.60;99.90;;;6.13;98.87;100637.34;4989486;28;20465;-84
2023/01/14 06:48:54;;;;;;;13.98;1.73;;;7.60;99.90;;;6.11;98.95;100624.34;5022695;28;20048;-85
2023/01/14 06:51:21;;;;;;;14.13;1.77;;;7.60;99.90;;;6.11;99.14;100636.53;4992958;28;20093;-83
2023/01/14 06:53:46;;;;;;;10.55;1.67;;;7.60;99.90;;;6.11;98.79;100632.19;5018841;28;20635;-85
2023/01/14 06:56:17;;;;;;;11.60;1.60;;;7.60;99.90;;;6.09;98.84;100627.88;5018023;28;20164;-82
2023/01/14 06:58:49;;;;;;;13.40;1.38;;;7.60;99.90;;;6.11;98.60;100636.53;4996530;28;20049;-83
2023/01/14 07:01:15;;;;;;;17.75;1.90;;;7.60;99.90;;;6.13;98.83;100629.50;4991912;28;20042;-83
2023/01/14 07:03:41;;;;;;;12.50;1.45;;;7.60;99.90;;;6.10;98.99;100629.63;4995006;28;20026;-84
2023/01/14 07:06:08;;;;;;;10.93;1.63;;;7.60;99.90;;;6.10;99.61;100634.84;5005817;28;20038;-82
2023/01/14 07:08:34;;;;;;;9.93;1.60;;;7.60;99.90;;;6.13;99.56;100640.84;4988700;28;20550;-84
2023/01/14 07:11:05;;;;;;;8.48;1.60;;;7.60;99.90;;;6.14;99.81;100641.69;5005860;28;20030;-83
2023/01/14 07:13:32;;;;;;;14.60;1.60;;;7.60;99.90;;;6.11;100.00;100636.53;5003799;28;20026;-82
2023/01/14 07:15:58;;;;;;;13.50;1.40;;;7.60;99.90;;;6.11;99.99;100636.53;5007745;28;20025;-83
2023/01/14 07:18:25;;;;;;;12.60;1.67;;;7.60;99.90;;;6.05;99.86;100632.38;5004731;28;20120;-84
2023/01/14 07:21:00;;;;;;;11.23;1.23;;;7.60;99.90;;;6.06;99.80;100630.59;5008917;28;20033;-85
2023/01/14 07:23:27;;;;;;;10.50;1.40;;;7.60;99.90;;;6.01;99.77;100628.13;4987190;28;20034;-82
2023/01/14 07:25:55;;;;;;;12.60;1.60;;;7.50;99.90;;;5.99;100.00;100637.78;5003243;28;20049;-84
2023/01/14 07:28:26;;;;;;;8.35;1.30;;;7.50;99.90;;;5.94;100.00;100644.88;4999308;28;20505;-85
2023/01/14 07:30:54;;;;;;;11.35;1.58;;;7.50;99.90;;;5.91;100.00;100650.16;5008807;28;20047;-84
2023/01/14 07:33:21;;;;;;;14.75;2.00;;;7.40;99.90;;;5.89;100.00;100650.19;4993566;28;20110;-85
2023/01/14 07:35:53;;;;;;;10.77;1.88;;;7.40;99.90;;;5.87;100.00;100646.78;5008487;28;20048;-82
2023/01/14 07:38:19;;;;;;;11.43;1.95;;;7.40;99.90;;;5.90;100.00;100640.63;5009198;28;20080;-81
2023/01/14 07:40:45;;;;;;;11.80;1.52;;;7.40;99.90;;;5.93;100.00;100638.75;5000263;28;20103;-83
2023/01/14 07:43:11;;;;;;;5.40;1.13;;;7.40;99.90;;;5.92;100.00;100641.44;4999702;28;20486;-83
2023/01/14 07:45:37;;;;;;;6.30;1.38;;;7.40;99.90;;;5.91;100.00;100645.78;4992613;28;20125;-82
2023/01/14 07:48:12;;;;;;;13.23;1.75;;;7.40;99.90;;;5.90;100.00;100641.47;4993956;28;20476;-83
2023/01/14 07:50:38;;;;;;;11.97;1.73;;;7.30;99.90;;;5.87;100.00;100648.53;5010455;28;20026;-82
2023/01/14 07:53:03;;;;;;;9.40;1.42;;;7.30;99.90;;;5.87;100.00;100652.00;4993087;28;20551;-84
2023/01/14 07:55:37;;;;;;;11.73;1.73;;;7.30;99.90;;;5.85;100.00;100650.34;4993275;28;20031;-83
2023/01/14 07:58:04;;;;;;;13.13;1.90;;;7.30;99.90;;;5.82;100.00;100656.50;5008817;28;20502;-86
2023/01/14 08:00:29;;;;;;;12.70;1.92;;;7.30;99.90;;;5.90;100.00;100667.59;5008722;28;20041;-83
2023/01/14 08:02:56;;;;;;;9.20;1.48;;;7.30;99.90;;;5.90;100.00;100664.16;5009228;28;20025;-83
2023/01/14 08:05:22;;;;;;;11.55;1.58;;;7.30;99.90;;;5.89;100.00;100670.25;4994000;28;20037;-84
2023/01/14 08:07:53;;;;;;;10.60;2.00;;;7.40;99.90;;;5.97;100.00;100660.47;5006979;28;20097;-83
2023/01/14 08:10:19;;;;;;;19.65;2.28;;;7.40;99.90;;;5.99;100.00;100663.06;4993873;28;20029;-83
2023/01/14 08:12:45;;;;;;;10.55;1.77;;;7.40;99.90;;;6.02;100.00;100661.19;5008236;28;20397;-83
2023/01/14 08:15:19;;;;;;;15.55;2.25;;;7.50;99.90;;;6.15;100.00;100659.09;4988506;28;20031;-85
2023/01/14 08:17:45;;;;;;;10.45;1.95;;;7.50;99.90;;;6.19;100.00;100665.94;4994498;28;20493;-83
2023/01/14 08:20:12;;;;;;;12.63;1.90;;;7.60;99.90;;;6.19;100.00;100665.09;5008684;28;20057;-86
2023/01/14 08:22:38;;;;;;;11.15;2.38;;;7.60;99.90;;;6.16;100.00;100666.88;5007868;28;20026;-83
2023/01/14 08:25:05;;;;;;;12.18;1.63;;;7.60;99.90;;;6.16;100.00;100672.13;4991858;28;20045;-85
2023/01/14 08:27:40;;;;;;;12.70;1.52;;;7.60;99.90;;;6.21;100.00;100669.38;4994098;28;20414;-83
2023/01/14 08:30:07;;;;;;;9.18;1.80;;;7.60;99.90;;;6.19;100.00;100676.41;5009623;28;20030;-83
2023/01/14 08:32:33;;;;;;;14.25;2.20;;;7.70;99.90;;;6.21;100.00;100678.97;5010261;28;20032;-83
2023/01/14 08:34:59;;;;;;;8.73;1.50;;;7.70;99.90;;;6.22;100.00;100671.09;4990193;28;20110;-83
2023/01/14 08:37:27;;;;;;;10.68;1.33;;;7.70;99.90;;;6.25;100.00;100668.38;4989401;28;20034;-84
2023/01/14 08:39:53;;;;;;;10.50;1.40;;;7.70;99.90;;;6.32;99.80;100677.75;5011600;28;20521;-84
2023/01/14 08:42:19;;;;;;;10.60;1.40;;;7.70;99.90;;;6.42;99.32;100677.50;4991367;28;20121;-83
2023/01/14 08:44:45;;;;;;;14.82;1.65;;;7.80;99.90;;;6.39;99.11;100683.66;5009658;28;20064;-85
2023/01/14 08:47:11;;;;;;;13.07;2.25;;;7.80;99.90;;;6.36;97.98;100684.59;4990692;28;20084;-84
2023/01/14 08:49:36;;;;;;;9.07;1.63;;;7.80;99.90;;;6.39;98.27;100686.25;4990127;28;20032;-81
2023/01/14 08:52:25;;;;;;;19.80;1.80;;;7.90;99.90;;;6.55;97.92;100694.53;4992817;28;20021;-83
2023/01/14 08:54:54;;;;;;;13.40;2.45;;;8.00;99.90;;;6.77;96.84;100698.19;5012554;28;20040;-83
2023/01/14 08:57:20;;;;;;;8.93;1.40;;;8.10;99.90;;;6.75;96.57;100686.91;5007443;28;20040;-84
2023/01/14 08:59:46;;;;;;;7.70;1.67;;;8.10;99.90;;;6.67;96.43;100691.50;4990901;28;20105;-83
2023/01/14 09:02:16;;;;;;;12.32;1.52;;;8.10;99.90;;;6.67;96.50;100698.50;4991046;28;20025;-84
2023/01/14 09:04:42;;;;;;;13.20;2.13;;;8.10;99.90;;;6.55;96.51;100687.53;5026594;28;20064;-83
2023/01/14 09:18:22;;;;;;;6.50;1.63;;;8.10;99.90;;;6.60;95.86;100703.06;5010711;28;20060;-82
2023/01/14 09:20:48;;;;;;;7.25;1.38;;;8.00;99.90;;;6.58;96.04;100703.13;5005835;28;20103;-84
2023/01/14 09:23:14;;;;;;;15.23;2.20;;;8.10;99.90;;;6.60;95.54;100708.31;5006824;28;20072;-84
2023/01/14 09:25:46;;;;;;;16.45;2.30;;;8.10;99.90;;;6.70;95.70;100709.75;4992100;28;20375;-85
2023/01/14 09:28:14;;;;;;;18.30;2.30;;;8.10;99.90;;;6.72;94.97;100692.25;5012189;28;20040;-85
2023/01/14 09:30:47;;;;;;;8.75;1.58;;;8.20;99.90;;;6.93;94.99;100697.69;4990421;28;20045;-84
2023/01/14 09:33:16;;;;;;;13.63;2.08;;;8.30;99.90;;;7.09;94.05;100693.69;5008575;28;20054;-84
2023/01/14 09:35:45;;;;;;;14.65;2.00;;;8.50;99.90;;;7.32;93.58;100687.69;5009121;28;20037;-84
2023/01/14 09:38:20;;;;;;;14.05;1.98;;;;;;;7.38;92.48;100691.84;4990742;28;20037;-83
2023/01/14 09:40:50;;;;;;;13.23;1.80;;;;;;;7.37;92.33;100685.75;5008381;28;20095;-82
2023/01/14 09:43:20;;;;;;;12.65;2.10;;;8.70;99.90;;;7.43;91.67;100689.06;5006454;28;20516;-83
2023/01/14 09:46:03;;;;;;;14.85;2.03;;;8.70;99.90;;;7.49;91.77;100684.47;5018636;28;20046;-83
2023/01/14 09:48:34;;;;;;;6.15;1.80;;;8.80;99.90;;;7.48;91.02;100682.78;4990840;28;20033;-83
2023/01/14 09:51:53;;;;;;;13.60;2.17;;;8.80;99.90;;;7.38;90.77;100686.59;4990831;28;20410;-84
2023/01/14 09:55:02;;;;;;;9.40;1.65;;;8.80;99.90;;;7.46;90.88;100678.50;4978879;23;20076;-84
2023/01/14 09:58:04;;;;;;;10.93;2.05;;;8.70;99.90;;;7.39;90.36;100675.25;5042202;28;20041;-83
2023/01/14 10:01:12;;;;;;;16.60;2.15;;;8.70;99.90;;;7.29;90.70;100671.22;5012325;28;20058;-84
2023/01/14 10:03:54;;;;;;;13.70;2.05;;;8.60;99.90;;;7.10;90.99;100671.81;5006335;28;20418;-84
2023/01/14 10:06:23;;;;;;;12.90;2.10;;;;;;;7.00;91.09;100654.72;5010036;28;20026;-85
2023/01/14 10:09:48;;;;;;;22.50;2.83;;;8.50;99.90;;;7.01;91.01;100648.56;5005996;28;20097;-83
2023/01/14 10:12:26;;;;;;;14.93;2.22;;;8.50;99.90;;;7.08;91.41;100649.22;4987538;28;20553;-83
2023/01/14 10:15:41;;;;;;;16.65;2.42;;;8.50;99.90;;;7.11;91.54;100646.50;5011790;28;20025;-84
2023/01/14 10:18:51;;;;;;;21.95;2.28;;;8.50;99.90;;;7.15;91.16;100648.97;5023495;28;20057;-84
2023/01/14 10:21:45;;;;;;;14.50;2.30;;;8.60;99.90;;;7.21;90.43;100647.03;5012542;28;20442;-83
2023/01/14 10:24:27;;;;;;;18.30;3.63;;;8.60;99.90;;;7.15;90.36;100646.34;4994252;28;20026;-85
2023/01/14 10:27:22;;;;;;;17.90;2.70;;;8.60;99.90;;;7.17;91.12;100636.69;5008265;28;20498;-83
2023/01/14 10:29:50;;;;;;;14.40;2.50;;;8.60;99.90;;;7.16;91.37;100641.97;5008173;28;20037;-83
2023/01/14 10:32:40;;;;;;;17.80;2.30;;;8.60;99.90;;;7.19;91.44;100629.63;4991436;28;20053;-84
2023/01/14 10:35:16;;;;;;;15.80;3.20;;;8.60;99.90;;;7.19;91.18;100632.25;4987455;28;20041;-84
2023/01/14 10:37:49;;;;;;;15.75;2.50;;;8.60;99.90;;;7.17;91.50;100623.59;4989015;28;20454;-81
2023/01/14 10:40:26;;;;;;;25.40;4.18;;;8.60;99.90;;;7.11;91.36;100615.09;4986357;28;20048;-84
2023/01/14 10:42:57;;;;;;;21.38;2.90;;;8.60;99.90;;;7.16;91.12;100611.38;4987425;28;20080;-84
2023/01/14 10:45:28;;;;;;;22.58;3.35;;;8.60;99.90;;;7.22;91.67;100609.47;4989399;28;20038;-84
2023/01/14 10:48:09;;;;;;;18.30;2.83;;;8.70;99.90;;;7.29;90.92;100608.34;5005944;28;20037;-85
2023/01/14 10:50:40;;;;;;;19.08;3.17;;;;;;;7.34;90.88;100603.78;4993350;28;20048;-85
2023/01/14 10:55:58;;;;;;;20.83;3.20;;;;;;;7.36;90.63;100609.84;5055073;23;20061;-85
2023/01/14 10:58:56;;;;;;;17.73;2.97;;;8.80;99.90;;;7.45;90.67;100600.78;5030146;28;20029;-86
2023/01/14 11:01:49;;;;;;;24.58;3.08;;;8.80;99.90;;;7.52;89.40;100592.69;5015181;28;20025;-85
2023/01/14 11:04:15;;;;;;;17.08;2.80;;;8.90;99.90;;;7.56;89.46;100590.81;5001776;28;20033;-85
2023/01/14 11:09:36;;;;;;;22.67;3.58;;;;;;;7.70;89.26;100593.75;4999814;28;20076;-85
2023/01/14 11:12:48;;;;;;;19.08;3.13;;;9.00;99.90;;;7.66;88.40;100586.06;5013874;28;20037;-85
2023/01/14 11:16:34;;;;;;;;;;;;;;;;;;;;;
2023/01/14 11:19:24;;;;;;;17.75;2.83;;;9.00;99.90;;;7.59;87.76;100570.56;5040435;28;20093;-84
2023/01/14 11:22:03;;;;;;;26.92;3.40;;;;;;;7.51;87.77;100558.66;5053981;28;20025;-82